createdAt,value
2019-06-01T00:04:14.830Z,78.00
2019-06-01T00:09:39.015Z,78.60
2019-06-01T00:15:03.054Z,77.83
2019-06-01T00:20:26.959Z,79.07
2019-06-01T00:25:50.770Z,80.72
2019-06-01T00:31:15.254Z,69.80
2019-06-01T00:36:39.716Z,65.53
2019-06-01T00:42:04.249Z,111.50
2019-06-01T00:47:29.021Z,99.35
2019-06-01T00:52:53.829Z,139.27
2019-06-01T00:58:19.007Z,195.10
2019-06-01T01:03:43.994Z,171.50
2019-06-01T01:09:08.995Z,231.03
2019-06-01T01:14:32.914Z,320.17
2019-06-01T01:19:56.779Z,133.70
2019-06-01T01:25:21.597Z,127.03
2019-06-01T01:31:01.639Z,125.90
2019-06-01T01:36:11.768Z,125.10
2019-06-01T01:41:37.188Z,95.30
2019-06-01T01:47:01.244Z,93.40
2019-06-01T01:52:25.807Z,137.10
2019-06-01T01:57:51.191Z,157.40
2019-06-01T02:03:15.933Z,99.87
2019-06-01T02:08:40.667Z,82.07
2019-06-01T02:14:05.633Z,93.73
2019-06-01T02:19:29.970Z,102.53
2019-06-01T02:24:54.166Z,101.70
2019-06-01T02:30:19.214Z,95.67
2019-06-01T02:35:43.031Z,76.37
2019-06-01T02:41:07.003Z,45.17
2019-06-01T02:46:35.421Z,102.67
2019-06-01T02:51:57.211Z,74.67
2019-06-01T02:57:21.254Z,98.83
2019-06-01T03:02:47.581Z,118.10
2019-06-01T03:08:12.861Z,93.97
2019-06-01T03:13:39.948Z,117.43
2019-06-01T03:19:03.874Z,133.45
2019-06-01T03:24:29.896Z,149.97
2019-06-01T03:29:57.203Z,113.40
2019-06-01T03:35:21.937Z,92.20
2019-06-01T03:40:45.781Z,126.33
2019-06-01T03:46:10.797Z,115.87
2019-06-01T03:51:34.615Z,93.30
2019-06-01T03:56:59.364Z,57.67
2019-06-01T04:02:32.910Z,51.37
2019-06-01T04:07:48.317Z,67.10
2019-06-01T04:13:12.818Z,44.87
2019-06-01T04:18:37.771Z,61.95
2019-06-01T04:24:01.924Z,40.83
2019-06-01T04:29:26.627Z,31.77
2019-06-01T04:34:50.495Z,33.23
2019-06-01T04:40:14.851Z,29.20
2019-06-01T04:45:39.625Z,24.52
2019-06-01T04:51:04.541Z,26.82
2019-06-01T04:56:28.233Z,28.87
2019-06-01T05:01:53.924Z,31.75
2019-06-01T05:07:18.636Z,32.15
2019-06-01T05:12:43.212Z,28.12
2019-06-01T05:18:07.959Z,25.45
2019-06-01T05:23:32.416Z,22.52
2019-06-01T05:28:56.640Z,23.92
2019-06-01T05:34:20.709Z,29.27
2019-06-01T05:39:45.323Z,25.05
2019-06-01T05:45:11.289Z,28.60
2019-06-01T05:50:35.051Z,29.12
2019-06-01T05:55:59.677Z,29.63
2019-06-01T06:01:23.666Z,28.32
2019-06-01T06:06:47.983Z,31.60
2019-06-01T06:12:15.289Z,23.00
2019-06-01T06:17:40.897Z,26.68
2019-06-01T06:23:05.941Z,29.63
2019-06-01T06:28:30.736Z,26.57
2019-06-01T06:33:56.827Z,30.45
2019-06-01T06:39:22.093Z,29.02
2019-06-01T06:44:47.064Z,29.52
2019-06-01T06:50:15.786Z,26.97
2019-06-01T06:55:40.785Z,27.58
2019-06-01T07:01:05.479Z,27.22
2019-06-01T07:06:30.172Z,25.65
2019-06-01T07:11:53.982Z,23.12
2019-06-01T07:17:17.730Z,21.00
2019-06-01T07:22:42.580Z,24.92
2019-06-01T07:28:06.614Z,19.95
2019-06-01T07:33:30.375Z,18.05
2019-06-01T07:38:54.164Z,19.30
2019-06-01T07:44:18.931Z,15.93
2019-06-01T07:49:44.422Z,22.77
2019-06-01T07:55:09.655Z,17.05
2019-06-01T08:00:33.426Z,25.05
2019-06-01T08:05:57.796Z,13.85
2019-06-01T08:11:25.201Z,12.90
2019-06-01T08:16:48.434Z,14.65
2019-06-01T08:22:13.106Z,16.40
2019-06-01T08:27:38.148Z,15.40
2019-06-01T08:33:02.562Z,16.15
2019-06-01T08:38:27.504Z,14.03
2019-06-01T08:43:51.761Z,14.95
2019-06-01T08:49:15.646Z,14.23
2019-06-01T08:54:39.463Z,14.10
2019-06-01T09:00:03.777Z,10.35
2019-06-01T09:05:30.445Z,16.62
2019-06-01T09:10:54.753Z,14.47
2019-06-01T09:16:19.424Z,12.63
2019-06-01T09:21:43.804Z,13.98
2019-06-01T09:27:08.013Z,13.95
2019-06-01T09:32:32.195Z,8.85
2019-06-01T09:37:56.419Z,11.88
2019-06-01T09:43:20.312Z,14.30
2019-06-01T09:48:44.911Z,10.28
2019-06-01T09:54:09.610Z,11.80
2019-06-01T09:59:34.102Z,13.50
2019-06-01T10:04:58.333Z,13.18
2019-06-01T10:10:23.206Z,9.55
2019-06-01T10:15:46.832Z,11.73
2019-06-01T10:21:10.458Z,13.38
2019-06-01T10:26:35.622Z,12.37
2019-06-01T10:32:00.539Z,12.75
2019-06-01T10:37:25.471Z,12.40
2019-06-01T10:42:49.791Z,19.20
2019-06-01T10:48:13.465Z,10.98
2019-06-01T10:53:38.543Z,11.20
2019-06-01T10:59:03.145Z,12.00
2019-06-01T11:04:27.598Z,10.45
2019-06-01T11:09:51.614Z,8.75
2019-06-01T11:15:15.943Z,8.80
2019-06-01T11:20:41.492Z,9.88
2019-06-01T11:26:06.109Z,6.80
2019-06-01T11:31:29.948Z,9.03
2019-06-01T11:37:05.118Z,9.63
2019-06-01T11:42:20.246Z,9.33
2019-06-01T11:47:45.227Z,8.50
2019-06-01T11:53:09.743Z,7.92
2019-06-01T11:58:35.153Z,8.08
2019-06-01T12:03:59.685Z,8.40
2019-06-01T12:09:24.227Z,6.92
2019-06-01T12:14:48.978Z,12.00
2019-06-01T12:20:13.552Z,7.65
2019-06-01T12:25:38.429Z,9.30
2019-06-01T12:31:02.823Z,10.93
2019-06-01T12:36:26.803Z,7.92
2019-06-01T12:41:51.839Z,7.50
2019-06-01T12:47:17.566Z,8.78
2019-06-01T12:52:42.271Z,10.05
2019-06-01T12:58:06.111Z,5.67
2019-06-01T13:03:30.555Z,6.95
2019-06-01T13:08:54.271Z,6.22
2019-06-01T13:14:18.595Z,8.95
2019-06-01T13:19:43.318Z,7.72
2019-06-01T13:25:08.578Z,7.47
2019-06-01T13:30:32.981Z,8.55
2019-06-01T13:35:57.445Z,7.97
2019-06-01T13:41:21.878Z,6.08
2019-06-01T13:46:47.434Z,8.45
2019-06-01T13:52:11.346Z,10.95
2019-06-01T13:57:39.473Z,9.35
2019-06-01T14:03:01.681Z,6.37
2019-06-01T14:08:29.272Z,8.70
2019-06-01T14:13:52.057Z,6.37
2019-06-01T14:19:17.697Z,8.43
2019-06-01T14:24:44.419Z,6.15
2019-06-01T14:30:08.259Z,4.55
2019-06-01T14:35:35.522Z,8.25
2019-06-01T14:40:57.485Z,6.03
2019-06-01T14:46:21.628Z,5.12
2019-06-01T14:51:47.543Z,4.80
2019-06-01T14:57:11.727Z,8.48
2019-06-01T15:02:36.874Z,9.25
2019-06-01T15:08:00.863Z,7.25
2019-06-01T15:13:25.463Z,5.67
2019-06-01T15:18:49.549Z,10.28
2019-06-01T15:24:13.372Z,8.53
2019-06-01T15:29:37.475Z,5.65
2019-06-01T15:35:01.292Z,5.55
2019-06-01T15:40:26.046Z,4.35
2019-06-01T15:45:51.209Z,5.67
2019-06-01T15:51:15.181Z,8.03
2019-06-01T15:56:39.140Z,6.05
2019-06-01T16:02:03.945Z,7.90
2019-06-01T16:07:27.509Z,3.87
2019-06-01T16:12:53.365Z,4.95
2019-06-01T16:18:17.179Z,6.53
2019-06-01T16:23:49.874Z,5.08
2019-06-01T16:29:06.998Z,7.90
2019-06-01T16:34:30.845Z,8.08
2019-06-01T16:40:02.118Z,5.20
2019-06-01T16:45:20.292Z,6.83
2019-06-01T16:50:44.788Z,5.85
2019-06-01T16:56:09.429Z,5.47
2019-06-01T17:01:34.186Z,6.12
2019-06-01T17:06:58.639Z,10.65
2019-06-01T17:12:23.255Z,8.53
2019-06-01T17:17:47.669Z,7.78
2019-06-01T17:23:25.887Z,6.40
2019-06-01T17:28:50.644Z,4.83
2019-06-01T17:34:15.407Z,5.10
2019-06-01T17:39:40.179Z,7.10
2019-06-01T17:45:06.364Z,5.83
2019-06-01T17:50:31.060Z,7.42
2019-06-01T17:55:54.992Z,9.55
2019-06-01T18:01:22.871Z,11.00
2019-06-01T18:06:47.662Z,5.28
2019-06-01T18:12:12.299Z,5.53
2019-06-01T18:17:35.712Z,5.90
2019-06-01T18:23:00.422Z,7.70
2019-06-01T18:28:24.372Z,4.97
2019-06-01T18:33:48.882Z,6.95
2019-06-01T18:39:13.741Z,6.70
2019-06-01T18:44:37.457Z,6.55
2019-06-01T18:50:03.817Z,7.62
2019-06-01T18:55:28.290Z,6.50
2019-06-01T19:00:52.925Z,5.75
2019-06-01T19:06:18.318Z,7.50
2019-06-01T19:11:43.025Z,10.30
2019-06-01T19:17:08.246Z,8.08
2019-06-01T19:22:32.846Z,11.05
2019-06-01T19:27:57.370Z,8.65
2019-06-01T19:33:22.167Z,12.00
2019-06-01T19:38:47.417Z,9.60
2019-06-01T19:44:11.894Z,9.70
2019-06-01T19:49:35.491Z,11.48
2019-06-01T19:54:59.972Z,12.73
2019-06-01T20:00:23.912Z,10.30
2019-06-01T20:05:47.681Z,14.78
2019-06-01T20:11:13.558Z,13.65
2019-06-01T20:16:37.394Z,16.40
2019-06-01T20:22:01.943Z,16.20
2019-06-01T20:27:26.523Z,15.95
2019-06-01T20:32:51.181Z,65.70
2019-06-01T20:38:16.583Z,16.32
2019-06-01T20:43:42.322Z,16.50
2019-06-01T20:49:07.144Z,17.17
2019-06-01T20:54:31.411Z,19.52
2019-06-01T20:59:55.364Z,13.88
2019-06-01T21:05:20.065Z,18.82
2019-06-01T21:10:43.863Z,24.12
2019-06-01T21:16:08.513Z,25.00
2019-06-01T21:21:32.963Z,51.50
2019-06-01T21:26:57.456Z,48.95
2019-06-01T21:32:23.645Z,51.77
2019-06-01T21:37:48.302Z,38.85
2019-06-01T21:43:23.486Z,35.52
2019-06-01T21:48:38.124Z,40.33
2019-06-01T21:54:02.096Z,27.77
2019-06-01T21:59:27.218Z,39.53
2019-06-01T22:04:51.066Z,38.70
2019-06-01T22:10:17.029Z,30.17
2019-06-01T22:15:40.658Z,30.30
2019-06-01T22:21:05.135Z,31.75
2019-06-01T22:26:30.927Z,26.17
2019-06-01T22:31:54.781Z,24.77
2019-06-01T22:37:19.782Z,25.90
2019-06-01T22:42:44.334Z,23.33
2019-06-01T22:48:08.987Z,22.67
2019-06-01T22:53:32.661Z,26.80
2019-06-01T22:58:57.376Z,23.27
2019-06-01T23:04:22.991Z,21.47
2019-06-01T23:09:46.648Z,21.67
2019-06-01T23:15:11.262Z,25.02
2019-06-01T23:20:35.156Z,22.07
2019-06-01T23:25:59.050Z,20.13
2019-06-01T23:31:24.318Z,18.93
2019-06-01T23:36:47.844Z,17.87
2019-06-01T23:42:11.684Z,19.48
2019-06-01T23:47:36.434Z,18.37
2019-06-01T23:53:13.170Z,20.52
2019-06-01T23:58:26.197Z,19.35
